Terminal Aerodrome Forecast
Issued by NWS Missoula, MT

Home | Current Version | Previous Version | Text Only | Print | Product List | Glossary On
Versions: 1 2 3 4 5 6 7 8 9 10 11 12 13 14
000
FTUS45 KMSO 232330
TAFMSO
TAF
KMSO 232330Z 2400/2424 06018G22KT P6SM VCSH FEW070 BKN080 BKN100
     FM240300 12006KT P6SM SCT120
     FM242100 28009KT P6SM VCSH FEW060 SCT080=

USA.gov is the U.S. government's official web portal to all federal, state and local government web resources and services.